Time;durP1;ratioP1;P1;durP2;ratioP2;P2;SDS_P1;SDS_P2;PMS_P1;PMS_P2;Temp;Humidity;BMP_temperature;BMP_pressure;BME280_temperature;BME280_humidity;BME280_pressure;Samples;Min_cycle;Max_cycle;Signal;HPM_P1;HPM_P2
2023/03/04 00:01:44;;;;;;;1.40;0.93;;;;;;;-5.90;67.10;96047.59;6321087;28;20079;-68
2023/03/04 00:04:49;;;;;;;2.80;1.23;;;;;;;-6.02;67.07;96060.59;6321043;28;20417;-67
2023/03/04 00:07:52;;;;;;;1.75;1.20;;;;;;;-6.24;67.64;96061.72;6321221;28;20047;-67
2023/03/04 00:10:53;;;;;;;1.05;1.05;;;;;;;-6.21;67.34;96062.53;6320505;28;20501;-67
2023/03/04 00:13:58;;;;;;;1.05;1.02;;;;;;;-6.33;68.27;96067.81;6319009;28;20048;-67
2023/03/04 00:16:59;;;;;;;2.05;1.73;;;;;;;-6.32;67.87;96064.38;6320324;28;20044;-67
2023/03/04 00:20:03;;;;;;;1.60;1.27;;;;;;;-6.17;67.77;96071.00;6320709;28;20039;-68
2023/03/04 00:23:05;;;;;;;1.95;1.25;;;;;;;-6.00;67.76;96076.81;6320164;28;20048;-67
2023/03/04 00:26:08;;;;;;;1.00;0.93;;;;;;;-5.95;67.75;96079.28;6320702;28;20055;-66
2023/03/04 00:29:15;;;;;;;1.52;1.42;;;;;;;-5.82;66.85;96083.34;6320700;28;20182;-68
2023/03/04 00:32:17;;;;;;;2.38;1.50;;;;;;;-5.57;66.73;96083.88;6318752;28;20055;-68
2023/03/04 00:35:21;;;;;;;2.25;1.40;;;;;;;-5.63;65.80;96066.00;6320283;28;20050;-67
2023/03/04 00:38:25;;;;;;;1.63;1.40;;;;;;;-5.90;66.84;96073.19;6319752;28;20048;-67
2023/03/04 00:41:26;;;;;;;1.10;1.10;;;;;;;-6.19;66.93;96083.00;6319908;28;20040;-67
2023/03/04 00:44:33;;;;;;;1.80;1.42;;;;;;;-6.34;67.64;96072.09;6320625;28;20169;-67
2023/03/04 00:47:36;;;;;;;1.70;1.50;;;;;;;-6.37;67.90;96086.63;6319517;28;20048;-66
2023/03/04 00:50:46;;;;;;;1.95;1.63;;;;;;;-6.27;67.91;96092.50;6320121;28;20552;-67
2023/03/04 00:53:47;;;;;;;2.90;1.55;;;;;;;-6.00;67.69;96084.47;6319743;28;20059;-68
2023/03/04 00:56:51;;;;;;;1.38;1.27;;;;;;;-5.82;67.34;96079.94;6318643;28;20036;-67
2023/03/04 00:59:52;;;;;;;1.58;1.48;;;;;;;-5.64;66.07;96084.81;6319938;28;20036;-67
2023/03/04 01:02:56;;;;;;;1.83;1.73;;;;;;;-5.80;65.93;96083.31;6319877;28;20194;-68
2023/03/04 01:06:00;;;;;;;2.30;1.50;;;;;;;-5.85;66.52;96080.00;6320011;28;20248;-67
2023/03/04 01:09:04;;;;;;;1.55;1.35;;;;;;;-5.96;66.52;96075.88;6319586;28;20051;-67
2023/03/04 01:12:05;;;;;;;1.60;1.27;;;;;;;-5.77;66.08;96080.75;6319738;28;20040;-67
2023/03/04 01:15:10;;;;;;;1.63;1.20;;;;;;;-5.71;66.06;96072.97;6320100;28;20054;-67
2023/03/04 01:18:13;;;;;;;1.42;0.98;;;;;;;-5.53;65.75;96076.97;6319502;28;20044;-67
2023/03/04 01:21:18;;;;;;;2.65;1.30;;;;;;;-5.48;65.55;96075.19;6319807;28;20040;-67
2023/03/04 01:24:20;;;;;;;1.30;1.30;;;;;;;-5.48;65.37;96067.50;6318073;28;20113;-67
2023/03/04 01:27:23;;;;;;;1.98;1.60;;;;;;;-5.54;65.83;96071.00;6319456;28;20040;-67
2023/03/04 01:30:30;;;;;;;2.05;1.45;;;;;;;-5.47;65.52;96082.84;6319504;28;20043;-68
2023/03/04 01:33:37;;;;;;;1.67;1.58;;;;;;;-5.41;65.18;96081.91;6319505;28;20060;-68
2023/03/04 01:36:38;;;;;;;2.50;1.77;;;;;;;-5.55;65.02;96083.81;6317586;28;20048;-67
2023/03/04 01:39:41;;;;;;;2.08;1.65;;;;;;;-5.56;65.19;96082.97;6318969;28;20056;-67
2023/03/04 01:42:43;;;;;;;1.40;1.30;;;;;;;-5.49;65.00;96083.72;6318686;28;20047;-67
2023/03/04 01:45:52;;;;;;;1.73;1.08;;;;;;;-5.55;64.98;96088.94;6319064;28;20438;-67
2023/03/04 01:48:58;;;;;;;3.38;1.35;;;;;;;-5.59;65.31;96088.16;6317674;28;20417;-67
2023/03/04 01:52:02;;;;;;;;;;;;;;;-5.70;64.93;96095.16;6319344;28;20052;-66
2023/03/04 01:55:13;;;;;;;2.63;1.50;;;;;;;-5.84;65.92;96091.91;6318903;28;19927;-68
2023/03/04 01:58:14;;;;;;;1.60;1.50;;;;;;;-6.06;65.71;96102.47;6317249;28;20544;-68
2023/03/04 02:01:18;;;;;;;2.78;1.58;;;;;;;-6.14;66.42;96101.75;6318707;28;20071;-67
2023/03/04 02:04:31;;;;;;;2.30;1.92;;;;;;;-5.97;65.90;96110.06;6318939;28;20047;-68
2023/03/04 02:07:35;;;;;;;1.40;1.30;;;;;;;-5.81;66.21;96102.13;6319180;28;20032;-68
2023/03/04 02:10:42;;;;;;;2.15;1.98;;;;;;;-5.77;65.87;96104.63;6317639;28;20036;-67
2023/03/04 02:14:09;;;;;;;2.80;1.90;;;;;;;-5.92;65.91;96109.94;6317708;28;20036;-68
2023/03/04 02:17:15;;;;;;;2.17;1.67;;;;;;;-5.79;65.87;96120.91;6318855;28;20046;-68
2023/03/04 02:20:28;;;;;;;1.20;1.10;;;;;;;-5.66;65.96;96122.44;6318306;28;20048;-67
2023/03/04 02:23:48;;;;;;;5.15;2.72;;;;;;;-5.62;66.11;96129.22;6319064;28;20469;-66
2023/03/04 02:26:52;;;;;;;3.72;1.95;;;;;;;-5.32;65.36;96124.50;6319051;28;20044;-67
2023/03/04 02:29:56;;;;;;;3.10;1.60;;;;;;;-5.19;65.42;96123.47;6318779;28;20044;-67
2023/03/04 02:33:00;;;;;;;1.50;1.33;;;;;;;-5.15;64.57;96119.13;6318465;28;20036;-67
2023/03/04 02:36:04;;;;;;;1.67;1.13;;;;;;;-5.22;65.16;96116.66;6321238;28;20040;-67
2023/03/04 02:39:24;;;;;;;0.88;0.88;;;;;;;-5.32;65.63;96116.81;6322826;28;20066;-67
2023/03/04 02:42:25;;;;;;;1.88;1.65;;;;;;;-5.36;65.55;96115.16;6322763;28;20052;-67
2023/03/04 02:45:30;;;;;;;1.77;1.55;;;;;;;-5.32;65.85;96116.81;6322748;28;20406;-67
2023/03/04 02:48:34;;;;;;;2.45;1.92;;;;;;;-5.37;65.36;96129.72;6322965;28;20143;-68
2023/03/04 02:51:38;;;;;;;1.48;1.38;;;;;;;-5.23;65.20;96121.81;6320873;28;20139;-68
2023/03/04 02:54:42;;;;;;;2.85;1.52;;;;;;;-5.23;65.17;96126.94;6322194;28;20052;-68
2023/03/04 02:57:49;;;;;;;1.50;1.13;;;;;;;-5.16;64.97;96122.56;6322820;28;20089;-67
2023/03/04 03:00:53;;;;;;;1.73;1.17;;;;;;;-5.18;65.09;96125.13;6322925;28;20044;-67
2023/03/04 03:03:54;;;;;;;1.27;1.05;;;;;;;-5.16;65.47;96128.53;6321994;28;20046;-68
2023/03/04 03:07:01;;;;;;;1.70;1.60;;;;;;;-5.13;64.74;96123.34;6322666;28;20036;-68
2023/03/04 03:10:05;;;;;;;1.27;1.17;;;;;;;-5.29;64.61;96114.22;6322723;28;20489;-68
2023/03/04 03:13:12;;;;;;;2.90;1.10;;;;;;;-5.55;65.90;96123.09;6322480;28;20066;-67
2023/03/04 03:16:16;;;;;;;;;;;;;;;-5.44;65.02;96139.19;6322559;28;20475;-68
2023/03/04 03:19:19;;;;;;;3.33;2.20;;;;;;;-5.83;65.52;96139.72;6321097;28;19919;-67
2023/03/04 03:22:24;;;;;;;4.10;2.28;;;;;;;-5.88;65.96;96138.06;6322204;28;20501;-68
2023/03/04 03:25:31;;;;;;;2.47;2.28;;;;;;;-6.02;66.51;96145.13;6321976;28;20040;-67
2023/03/04 03:28:37;;;;;;;1.73;1.63;;;;;;;-5.92;66.39;96146.66;6322173;28;20044;-67
2023/03/04 03:31:43;;;;;;;4.32;2.22;;;;;;;-6.03;66.62;96143.41;6320788;28;20040;-67
2023/03/04 03:34:44;;;;;;;;;;;;;;;-5.73;66.53;96151.56;6321946;28;20091;-67
2023/03/04 03:37:51;;;;;;;4.85;1.92;;;;;;;-5.74;66.04;96147.31;6322136;28;19920;-68
2023/03/04 03:40:52;;;;;;;2.85;1.45;;;;;;;-5.78;66.46;96148.19;6321582;28;20544;-67
2023/03/04 03:43:55;;;;;;;5.45;2.47;;;;;;;-5.87;66.73;96144.88;6321422;28;20054;-68
2023/03/04 03:46:59;;;;;;;4.43;2.40;;;;;;;-5.63;66.34;96140.34;6320429;28;20119;-68
2023/03/04 03:50:04;;;;;;;6.93;3.45;;;;;;;-5.38;66.49;96157.91;6320999;28;20055;-68
2023/03/04 03:53:05;;;;;;;3.85;2.70;;;;;;;-5.26;65.72;96157.78;6320526;28;20071;-68
2023/03/04 03:56:09;;;;;;;3.00;2.00;;;;;;;-5.12;65.64;96155.84;6321385;28;20040;-67
2023/03/04 03:59:10;;;;;;;3.65;2.88;;;;;;;-5.03;64.89;96145.44;6320335;28;20140;-67
2023/03/04 04:02:14;;;;;;;5.70;3.08;;;;;;;-4.85;64.97;96161.41;6321398;28;20498;-68
2023/03/04 04:05:19;;;;;;;5.53;2.78;;;;;;;-4.83;64.19;96157.97;6320642;28;20055;-68
2023/03/04 04:08:21;;;;;;;2.80;1.80;;;;;;;-4.70;64.47;96158.59;6321003;28;20062;-68
2023/03/04 04:11:25;;;;;;;2.03;1.40;;;;;;;-4.46;63.34;96161.63;6322167;28;20043;-67
2023/03/04 04:14:28;;;;;;;2.13;1.50;;;;;;;-4.54;63.72;96160.03;6320948;28;20032;-67
2023/03/04 04:17:32;;;;;;;2.63;1.30;;;;;;;-4.35;63.72;96167.44;6319059;28;20456;-68
2023/03/04 04:20:36;;;;;;;2.38;1.70;;;;;;;-4.05;63.10;96178.84;6320408;28;20501;-67
2023/03/04 04:23:37;;;;;;;1.85;1.73;;;;;;;-3.85;62.80;96170.75;6320477;28;20040;-68
2023/03/04 04:26:42;;;;;;;1.30;1.20;;;;;;;-3.67;63.24;96178.13;6320767;28;20502;-68
2023/03/04 04:29:43;;;;;;;4.18;2.10;;;;;;;-3.76;63.78;96170.59;6320184;28;20099;-67
2023/03/04 04:32:50;;;;;;;2.88;1.55;;;;;;;-3.71;64.77;96173.94;6320541;28;20134;-68
2023/03/04 04:35:54;;;;;;;6.22;1.75;;;;;;;-3.49;64.85;96179.44;6320169;28;20051;-69
2023/03/04 04:38:56;;;;;;;1.67;1.58;;;;;;;-3.59;65.63;96177.09;6319747;28;20048;-67
2023/03/04 04:41:59;;;;;;;1.75;1.58;;;;;;;-3.69;67.11;96197.00;6320102;28;20047;-67
2023/03/04 04:45:04;;;;;;;2.58;1.70;;;;;;;-3.56;67.06;96197.63;6320182;28;20040;-68
2023/03/04 04:48:05;;;;;;;2.75;2.30;;;;;;;-3.62;67.26;96207.16;6319774;28;20036;-67
2023/03/04 04:51:07;;;;;;;2.08;1.33;;;;;;;-3.64;67.58;96185.75;6319907;28;20055;-68
2023/03/04 04:54:13;;;;;;;2.17;1.90;;;;;;;-3.59;67.78;96188.25;6319491;28;20135;-68
2023/03/04 04:57:17;;;;;;;7.05;2.00;;;;;;;-3.42;67.50;96193.88;6319152;28;20055;-68
2023/03/04 05:00:24;;;;;;;2.65;2.45;;;;;;;-3.24;66.90;96197.78;6319403;28;20048;-67
2023/03/04 05:03:28;;;;;;;2.85;1.42;;;;;;;-2.92;66.44;96205.69;6319363;28;20055;-68
2023/03/04 05:06:29;;;;;;;3.17;1.48;;;;;;;-2.87;65.60;96198.69;6319633;28;20135;-67
2023/03/04 05:09:33;;;;;;;2.47;2.28;;;;;;;-2.91;65.80;96218.53;6319697;28;20138;-67
2023/03/04 05:12:34;;;;;;;1.95;1.70;;;;;;;-2.95;66.30;96204.84;6319184;28;20052;-67
2023/03/04 05:15:37;;;;;;;1.80;1.70;;;;;;;-3.03;66.84;96204.22;6317851;28;20063;-68
2023/03/04 05:18:44;;;;;;;0.95;0.82;;;;;;;-2.83;66.20;96201.19;6319092;28;20135;-67
2023/03/04 05:21:46;;;;;;;1.70;1.60;;;;;;;-2.87;66.78;96207.28;6319066;28;20058;-67
2023/03/04 05:24:50;;;;;;;2.83;2.50;;;;;;;-2.87;66.72;96225.28;6319592;28;20044;-67
2023/03/04 05:27:51;;;;;;;4.38;2.28;;;;;;;-2.88;67.18;96218.47;6317774;28;20044;-68
2023/03/04 05:30:53;;;;;;;2.15;1.80;;;;;;;-2.82;67.80;96222.63;6318827;28;20091;-68
2023/03/04 05:33:54;;;;;;;1.55;1.45;;;;;;;-2.68;67.75;96199.13;6318710;28;20726;-68
2023/03/04 05:37:01;;;;;;;2.72;1.63;;;;;;;-2.73;67.79;96220.66;6318973;28;20481;-67
2023/03/04 05:40:03;;;;;;;2.08;1.70;;;;;;;-2.39;67.28;96219.03;6319167;28;20052;-67
2023/03/04 05:43:07;;;;;;;2.65;2.40;;;;;;;-2.31;66.80;96210.22;6318746;28;20056;-68
2023/03/04 05:46:15;;;;;;;2.47;2.28;;;;;;;-1.97;66.63;96221.41;6319087;28;20421;-68
2023/03/04 05:49:25;;;;;;;3.05;2.28;;;;;;;-1.91;65.84;96209.19;6319280;28;20040;-67
2023/03/04 05:52:26;;;;;;;2.30;2.10;;;;;;;-1.64;65.54;96211.94;6318955;28;20416;-67
2023/03/04 05:55:31;;;;;;;2.30;2.08;;;;;;;-1.36;64.50;96215.44;6318951;28;20541;-67
2023/03/04 05:58:37;;;;;;;2.78;2.15;;;;;;;-1.45;63.79;96165.81;6318836;28;20040;-68
2023/03/04 06:01:40;;;;;;;4.45;1.92;;;;;;;-1.03;63.91;96215.34;6319237;28;20051;-67
2023/03/04 06:04:45;;;;;;;1.92;1.73;;;;;;;-0.40;62.06;96220.28;6318325;28;20059;-69
2023/03/04 06:07:46;;;;;;;1.27;1.10;;;;;;;-0.01;61.10;96208.63;6318641;28;20051;-68
2023/03/04 06:10:52;;;;;;;2.42;1.80;;;;;;;0.44;60.39;96215.72;6319585;28;20168;-68
2023/03/04 06:13:59;;;;;;;1.70;1.48;;;;;;;1.01;58.22;96205.03;6324068;28;20043;-67
2023/03/04 06:17:03;;;;;;;2.10;1.90;;;;;;;2.17;56.27;96205.53;6323168;28;20043;-68
2023/03/04 06:20:05;;;;;;;1.50;1.40;;;;;;;3.49;52.35;96199.63;6323173;28;20052;-68
2023/03/04 06:23:10;;;;;;;1.90;1.60;;;;;;;4.42;49.70;96196.78;6323835;28;20055;-68
2023/03/04 06:26:16;;;;;;;1.50;1.40;;;;;;;5.25;46.95;96197.63;6323598;28;20047;-69
2023/03/04 06:29:19;;;;;;;1.70;1.50;;;;;;;6.47;43.47;96199.44;6323339;28;20248;-67
2023/03/04 06:32:21;;;;;;;1.42;1.33;;;;;;;7.47;42.38;96202.00;6321076;28;20129;-68
2023/03/04 06:35:29;;;;;;;1.10;0.98;;;;;;;8.90;38.71;96193.47;6323246;28;20047;-67
2023/03/04 06:38:30;;;;;;;1.02;1.02;;;;;;;10.61;35.96;96197.78;6322754;28;20055;-68
2023/03/04 06:41:32;;;;;;;2.85;2.08;;;;;;;11.69;33.26;96190.25;6323251;28;20506;-68
2023/03/04 06:44:34;;;;;;;6.13;3.50;;;;;;;11.99;32.81;96181.72;6322299;28;20075;-70
2023/03/04 06:47:39;;;;;;;2.78;2.15;;;;;;;12.05;32.46;96199.66;6322978;28;20036;-68
2023/03/04 06:50:45;;;;;;;2.83;1.98;;;;;;;12.69;30.88;96200.59;6322537;28;20055;-67
2023/03/04 06:53:47;;;;;;;1.65;1.05;;;;;;;11.45;32.11;96198.31;6322533;28;20581;-68
2023/03/04 06:56:50;;;;;;;3.13;2.00;;;;;;;8.66;36.65;96208.25;6322586;28;20054;-67
2023/03/04 06:59:55;;;;;;;1.27;1.17;;;;;;;6.93;40.30;96199.28;6321831;28;20052;-67
2023/03/04 07:03:00;;;;;;;1.15;1.00;;;;;;;5.67;42.71;96214.44;6322215;28;20094;-67
2023/03/04 07:06:04;;;;;;;3.95;1.38;;;;;;;4.36;45.33;96202.31;6322749;28;20044;-67
2023/03/04 07:09:08;;;;;;;0.88;0.88;;;;;;;3.90;47.11;96216.75;6322296;28;20052;-68
2023/03/04 07:12:09;;;;;;;1.70;1.42;;;;;;;3.21;48.64;96209.66;6322116;28;20048;-69
2023/03/04 07:15:15;;;;;;;1.30;1.20;;;;;;;3.63;48.42;96200.75;6322323;28;20035;-67
2023/03/04 07:18:17;;;;;;;1.73;1.63;;;;;;;4.09;48.14;96212.34;6321812;28;20058;-68
2023/03/04 07:21:20;;;;;;;1.58;1.20;;;;;;;5.02;46.38;96211.06;6321274;28;20044;-68
2023/03/04 07:24:24;;;;;;;2.30;1.13;;;;;;;5.09;46.02;96207.19;6322002;28;20047;-68
2023/03/04 07:27:26;;;;;;;2.17;1.13;;;;;;;4.76;46.73;96200.25;6321645;28;20043;-68
2023/03/04 07:30:27;;;;;;;1.70;1.60;;;;;;;3.74;49.20;96203.69;6321721;28;20051;-68
2023/03/04 07:33:28;;;;;;;1.88;1.73;;;;;;;3.24;50.83;96204.31;6321772;28;20036;-67
2023/03/04 07:36:37;;;;;;;2.40;2.20;;;;;;;3.07;51.59;96205.91;6321369;28;20043;-68
2023/03/04 07:39:38;;;;;;;1.80;1.63;;;;;;;2.70;52.42;96204.97;6321185;28;20052;-68
2023/03/04 07:42:41;;;;;;;1.98;1.85;;;;;;;2.32;53.90;96200.59;6321402;28;20054;-67
2023/03/04 07:45:43;;;;;;;2.20;1.70;;;;;;;1.84;55.83;96206.94;6321127;28;20048;-67
2023/03/04 07:48:49;;;;;;;2.33;2.05;;;;;;;1.48;57.86;96202.34;6320632;28;20545;-68
2023/03/04 07:51:56;;;;;;;2.10;1.98;;;;;;;1.00;59.76;96204.19;6320631;28;20521;-67
2023/03/04 07:55:03;;;;;;;2.40;2.13;;;;;;;0.99;60.15;96206.81;6321288;28;20044;-67
2023/03/04 07:58:06;;;;;;;4.90;2.28;;;;;;;0.80;60.03;96191.16;6321368;28;20040;-66
2023/03/04 08:01:12;;;;;;;3.00;2.67;;;;;;;0.61;61.49;96171.09;6320626;28;20048;-68
2023/03/04 08:04:16;;;;;;;2.65;2.45;;;;;;;0.81;62.06;96192.81;6320853;28;20101;-67
2023/03/04 08:07:22;;;;;;;3.17;2.08;;;;;;;1.05;60.33;96184.13;6321210;28;20306;-68
2023/03/04 08:10:24;;;;;;;3.28;2.03;;;;;;;1.21;59.95;96174.00;6320835;28;20044;-67
2023/03/04 08:13:25;;;;;;;1.83;1.63;;;;;;;1.56;58.00;96195.97;6320870;28;20044;-68
2023/03/04 08:16:27;;;;;;;2.72;2.42;;;;;;;1.81;57.46;96181.97;6320253;28;20057;-68
2023/03/04 08:19:31;;;;;;;2.25;2.05;;;;;;;2.47;55.05;96174.00;6320844;28;20498;-66
2023/03/04 08:22:35;;;;;;;2.38;2.15;;;;;;;2.86;53.22;96162.72;6318468;28;20044;-68
2023/03/04 08:25:41;;;;;;;2.25;1.83;;;;;;;2.94;52.75;96186.59;6319931;28;20047;-68
2023/03/04 08:28:45;;;;;;;2.85;1.52;;;;;;;4.08;49.94;96176.81;6320257;28;20138;-68
2023/03/04 08:31:48;;;;;;;2.42;1.17;;;;;;;4.36;48.33;96160.63;6320052;28;20052;-68
2023/03/04 08:34:55;;;;;;;1.98;1.77;;;;;;;4.14;48.76;96166.09;6320217;28;20035;-67
2023/03/04 08:37:57;;;;;;;1.77;1.48;;;;;;;3.51;50.16;96147.53;6320274;28;20047;-67
2023/03/04 08:41:02;;;;;;;2.35;2.05;;;;;;;2.92;51.61;96149.47;6320032;28;20044;-68
2023/03/04 08:44:04;;;;;;;2.45;1.70;;;;;;;2.67;52.30;96158.38;6319345;28;20096;-68
2023/03/04 08:47:09;;;;;;;4.03;1.85;;;;;;;2.61;52.63;96150.84;6319526;28;20137;-67
2023/03/04 08:50:16;;;;;;;2.10;1.70;;;;;;;2.53;52.76;96159.91;6319869;28;20137;-68
2023/03/04 08:53:20;;;;;;;1.77;1.42;;;;;;;2.29;53.79;96154.00;6319512;28;20051;-69
2023/03/04 08:56:22;;;;;;;2.20;2.00;;;;;;;2.05;54.78;96159.38;6319465;28;20066;-67
2023/03/04 08:59:26;;;;;;;2.85;1.40;;;;;;;2.01;54.71;96168.19;6319794;28;20044;-68
2023/03/04 09:02:34;;;;;;;2.38;1.88;;;;;;;1.98;54.88;96158.78;6319653;28;20040;-68
2023/03/04 09:05:35;;;;;;;2.20;2.00;;;;;;;2.50;54.07;96160.03;6319055;28;20539;-68
2023/03/04 09:08:36;;;;;;;2.58;2.33;;;;;;;2.91;52.50;96160.75;6319486;28;20957;-68
2023/03/04 09:11:40;;;;;;;2.47;2.10;;;;;;;3.17;51.84;96150.91;6319671;28;20044;-68
2023/03/04 09:14:41;;;;;;;2.58;1.90;;;;;;;3.51;50.79;96150.13;6318779;28;20375;-69
2023/03/04 09:17:45;;;;;;;1.70;1.58;;;;;;;3.71;50.39;96151.75;6319343;28;20035;-68
2023/03/04 09:20:55;;;;;;;1.80;1.70;;;;;;;3.48;50.29;96145.94;6319082;28;20048;-68
2023/03/04 09:23:56;;;;;;;3.05;2.53;;;;;;;2.99;51.31;96140.44;6317492;28;20057;-69
2023/03/04 09:27:04;;;;;;;1.77;1.55;;;;;;;2.75;52.05;96165.00;6319436;28;20036;-70
2023/03/04 09:30:09;;;;;;;2.28;1.85;;;;;;;2.77;52.39;96157.94;6319434;28;20059;-67
2023/03/04 09:33:11;;;;;;;2.28;1.92;;;;;;;2.88;51.51;96145.31;6319495;28;20048;-68
2023/03/04 09:36:13;;;;;;;2.25;1.80;;;;;;;2.96;51.68;96138.00;6319361;28;20086;-68
2023/03/04 09:39:17;;;;;;;2.45;2.13;;;;;;;2.89;51.95;96152.22;6319454;28;20040;-68
2023/03/04 09:42:27;;;;;;;3.03;1.52;;;;;;;2.79;51.93;96153.53;6318770;28;20097;-68
2023/03/04 09:45:37;;;;;;;3.15;2.05;;;;;;;2.56;52.67;96142.41;6318825;28;20044;-68
2023/03/04 09:48:47;;;;;;;3.05;2.22;;;;;;;2.43;53.29;96159.44;6324034;28;20089;-67
2023/03/04 09:52:01;;;;;;;2.47;1.45;;;;;;;2.44;53.46;96148.16;6323933;28;20063;-68
2023/03/04 09:55:08;;;;;;;2.95;1.83;;;;;;;2.12;54.68;96150.38;6324204;28;20056;-68
2023/03/04 09:58:25;;;;;;;2.33;1.23;;;;;;;2.08;53.91;96154.03;6323818;28;20044;-68
2023/03/04 10:01:54;;;;;;;2.35;2.03;;;;;;;1.99;54.38;96144.06;6324047;28;20048;-67
2023/03/04 10:05:03;;;;;;;2.75;1.67;;;;;;;2.03;54.20;96145.59;6323992;28;20048;-67
2023/03/04 10:08:29;;;;;;;3.30;1.55;;;;;;;1.88;54.37;96141.06;6323414;28;20048;-68
2023/03/04 10:12:00;;;;;;;2.67;2.10;;;;;;;1.98;54.06;96127.66;6323753;28;20040;-68
2023/03/04 10:15:16;;;;;;;2.50;2.30;;;;;;;1.98;53.45;96144.94;6322966;28;20566;-68
2023/03/04 10:18:41;;;;;;;2.22;2.03;;;;;;;2.00;53.54;96150.94;6323344;28;20052;-68
2023/03/04 10:21:50;;;;;;;1.10;0.98;;;;;;;1.97;53.44;96140.69;6323621;28;20497;-68
2023/03/04 10:25:01;;;;;;;2.28;1.55;;;;;;;1.87;53.70;96135.06;6323563;28;20040;-68
2023/03/04 10:28:14;;;;;;;1.85;1.40;;;;;;;1.89;53.28;96142.75;6323493;28;20123;-69
2023/03/04 10:31:21;;;;;;;3.00;1.73;;;;;;;1.71;54.12;96150.41;6323053;28;20047;-69
2023/03/04 10:34:25;;;;;;;3.25;2.03;;;;;;;1.72;53.89;96136.50;6323248;28;20044;-68
2023/03/04 10:37:47;;;;;;;3.63;2.08;;;;;;;1.74;53.88;96139.91;6323130;28;20047;-68
2023/03/04 10:40:49;;;;;;;5.03;3.03;;;;;;;1.67;54.45;96138.47;6322880;28;20067;-69
2023/03/04 10:44:01;;;;;;;2.13;1.85;;;;;;;1.89;53.88;96122.00;6322935;28;20048;-69
2023/03/04 10:47:10;;;;;;;5.53;2.65;;;;;;;1.74;55.17;96136.47;6323015;28;20047;-68
2023/03/04 10:50:23;;;;;;;4.10;2.20;;;;;;;1.90;55.29;96118.53;6322904;28;20074;-68
2023/03/04 10:53:32;;;;;;;2.42;1.83;;;;;;;1.73;55.65;96122.66;6322690;28;20048;-68
2023/03/04 10:56:44;;;;;;;5.32;2.28;;;;;;;1.64;55.70;96112.66;6321011;28;20047;-68
2023/03/04 10:59:55;;;;;;;3.72;1.63;;;;;;;1.62;55.25;96124.84;6322377;28;20097;-68
2023/03/04 11:03:26;;;;;;;3.47;2.38;;;;;;;1.54;55.67;96113.97;6321217;28;20051;-68
2023/03/04 11:06:31;;;;;;;4.20;2.83;;;;;;;1.39;55.94;96127.53;6322658;28;20140;-69
2023/03/04 11:09:35;;;;;;;5.47;3.33;;;;;;;1.26;55.86;96138.41;6322359;28;20116;-68
2023/03/04 11:12:40;;;;;;;4.95;2.85;;;;;;;1.11;56.62;96118.28;6322548;28;20132;-67
2023/03/04 11:15:59;;;;;;;5.55;3.28;;;;;;;1.11;57.46;96133.84;6322218;28;20125;-68
2023/03/04 11:19:12;;;;;;;2.65;2.35;;;;;;;0.98;58.19;96132.63;6322179;28;20120;-68
2023/03/04 11:22:20;;;;;;;2.28;1.85;;;;;;;0.82;58.73;96122.84;6322016;28;20506;-69
2023/03/04 11:25:37;;;;;;;4.22;2.53;;;;;;;0.62;58.53;96120.16;6321927;28;20040;-68
2023/03/04 11:28:59;;;;;;;3.08;2.40;;;;;;;0.71;58.26;96122.44;6321036;28;20044;-68
2023/03/04 11:32:21;;;;;;;3.33;2.50;;;;;;;0.79;58.08;96122.09;6321743;28;20105;-67
2023/03/04 11:35:33;;;;;;;2.97;2.70;;;;;;;0.69;58.92;96111.28;6321807;28;20113;-68
2023/03/04 11:38:49;;;;;;;3.47;2.78;;;;;;;0.72;58.68;96103.38;6320659;28;20043;-69
2023/03/04 11:42:09;;;;;;;3.47;2.40;;;;;;;0.83;58.35;96115.94;6320316;28;20193;-68
2023/03/04 11:45:50;;;;;;;3.53;2.80;;;;;;;0.76;58.85;96102.34;6321246;28;20043;-68
2023/03/04 11:49:00;;;;;;;5.57;3.88;;;;;;;0.71;58.51;96114.66;6321018;28;20463;-67
2023/03/04 11:52:13;;;;;;;7.85;4.63;;;;;;;0.51;59.58;96109.38;6320618;28;20122;-67
2023/03/04 11:55:39;;;;;;;7.25;4.65;;;;;;;0.31;60.76;96100.63;6321149;28;20040;-68
2023/03/04 11:58:57;;;;;;;7.22;4.10;;;;;;;0.21;60.88;96104.44;6320709;28;20097;-67
2023/03/04 12:02:10;;;;;;;5.10;3.30;;;;;;;0.26;60.70;96105.13;6320841;28;20048;-68
2023/03/04 12:05:23;;;;;;;3.00;2.28;;;;;;;0.43;59.38;96094.97;6320738;28;20105;-67
2023/03/04 12:08:46;;;;;;;5.95;3.10;;;;;;;0.36;59.98;96083.16;6319320;28;20556;-67
2023/03/04 12:11:59;;;;;;;6.22;4.70;;;;;;;0.36;59.58;96092.66;6320656;28;20040;-67
2023/03/04 12:15:09;;;;;;;7.18;4.35;;;;;;;0.28;60.26;96090.34;6320414;28;20048;-67
2023/03/04 12:18:29;;;;;;;6.00;4.13;;;;;;;0.32;61.01;96097.13;6320711;28;20505;-68
2023/03/04 12:21:52;;;;;;;6.65;5.65;;;;;;;0.02;62.27;96093.06;6320751;28;20048;-67
2023/03/04 12:25:13;;;;;;;7.97;5.65;;;;;;;-0.13;62.64;96084.94;6320518;28;20382;-67
2023/03/04 12:28:21;;;;;;;8.60;5.43;;;;;;;-0.34;63.75;96091.72;6320212;28;20047;-67
2023/03/04 12:31:40;;;;;;;7.07;3.90;;;;;;;-0.37;63.47;96080.63;6320223;28;20190;-68
2023/03/04 12:35:27;;;;;;;5.65;4.63;;;;;;;-0.38;63.46;96089.28;6320278;28;20052;-68
2023/03/04 12:39:04;;;;;;;4.88;3.40;;;;;;;-0.32;63.20;96073.56;6320304;28;20452;-67
2023/03/04 12:42:36;;;;;;;5.47;3.65;;;;;;;-0.46;64.25;96067.09;6320309;28;20047;-68
2023/03/04 12:45:49;;;;;;;6.82;4.78;;;;;;;-0.63;64.23;96059.09;6320295;28;20032;-68
2023/03/04 12:49:15;;;;;;;3.88;2.65;;;;;;;-0.65;64.96;96058.31;6319972;28;20039;-68
2023/03/04 12:52:29;;;;;;;5.20;3.78;;;;;;;-0.78;64.72;96055.28;6319869;28;20147;-68
2023/03/04 12:55:41;;;;;;;11.40;6.63;;;;;;;-1.06;65.43;96045.03;6319409;28;20048;-67
2023/03/04 12:58:49;;;;;;;9.50;6.93;;;;;;;-1.26;65.76;96032.75;6319671;28;20106;-69
2023/03/04 13:02:24;;;;;;;9.27;5.28;;;;;;;-1.16;66.81;96043.63;6320188;28;20044;-67
2023/03/04 13:06:09;;;;;;;9.20;6.38;;;;;;;-1.06;66.34;96050.19;6319078;28;20052;-68
2023/03/04 13:09:30;;;;;;;10.32;7.00;;;;;;;-1.46;66.75;96041.13;6300632;28;20048;-68
2023/03/04 13:12:49;;;;;;;9.15;5.80;;;;;;;-1.60;67.36;96045.88;6319252;28;20048;-67
2023/03/04 13:16:04;;;;;;;8.38;6.53;;;;;;;-1.54;67.26;96045.66;6319353;28;20048;-67
2023/03/04 13:19:47;;;;;;;11.05;6.30;;;;;;;-1.48;67.13;96036.91;6319103;28;20055;-67
2023/03/04 13:23:26;;;;;;;8.77;5.53;;;;;;;-1.65;67.56;96037.41;6317765;28;20517;-67
2023/03/04 13:26:33;;;;;;;12.45;7.57;;;;;;;-2.05;68.02;96025.69;6307696;28;20449;-67
2023/03/04 13:29:38;;;;;;;9.23;5.43;;;;;;;-2.03;68.57;96008.47;6319325;28;20505;-68
2023/03/04 13:32:41;;;;;;;6.20;4.40;;;;;;;-2.15;69.23;95998.50;6317974;28;20051;-67
2023/03/04 13:35:45;;;;;;;7.68;5.20;;;;;;;-2.15;69.35;96008.78;6319164;28;20040;-68
2023/03/04 13:39:14;;;;;;;6.75;5.45;;;;;;;-2.16;69.93;96017.44;6319036;28;20044;-69
2023/03/04 13:42:55;;;;;;;7.85;4.40;;;;;;;-2.40;70.60;96014.66;6319160;28;20124;-68
2023/03/04 13:46:22;;;;;;;8.98;6.63;;;;;;;-2.60;71.28;95996.34;6205580;28;20042;-68
2023/03/04 13:49:27;;;;;;;9.80;5.93;;;;;;;-2.74;71.69;96015.56;6318813;28;20522;-68
2023/03/04 13:52:41;;;;;;;3.85;3.20;;;;;;;-2.66;71.74;96006.78;6318654;28;20056;-67
2023/03/04 13:55:43;;;;;;;7.90;6.07;;;;;;;-2.69;71.80;96014.59;6318724;28;20054;-67
2023/03/04 13:58:44;;;;;;;7.68;5.68;;;;;;;-2.79;72.01;96006.28;6317594;28;20032;-68
2023/03/04 14:01:46;;;;;;;9.05;6.75;;;;;;;-2.86;72.59;96015.91;6318012;28;20055;-68
2023/03/04 14:04:53;;;;;;;8.98;5.25;;;;;;;-2.69;71.98;96012.00;6318920;28;20047;-68
2023/03/04 14:07:54;;;;;;;6.90;3.97;;;;;;;-2.54;72.16;96006.47;6318715;28;20040;-69
2023/03/04 14:10:58;;;;;;;4.82;3.63;;;;;;;-2.64;72.20;96010.16;6318186;28;20151;-69
2023/03/04 14:14:09;;;;;;;6.85;3.80;;;;;;;-2.78;72.47;96018.25;6319100;28;20044;-68
2023/03/04 14:17:21;;;;;;;11.65;6.80;;;;;;;-2.91;73.09;96010.03;6318616;28;20513;-69
2023/03/04 14:20:35;;;;;;;7.05;3.85;;;;;;;-2.95;73.40;96016.97;6318493;28;20509;-69
2023/03/04 14:23:36;;;;;;;8.18;5.07;;;;;;;-2.84;73.72;96014.09;6318851;28;20036;-67
2023/03/04 14:26:38;;;;;;;10.18;5.20;;;;;;;-2.94;73.30;96007.53;6318562;28;20048;-68
2023/03/04 14:29:41;;;;;;;8.82;6.25;;;;;;;-2.91;73.58;96012.59;6318561;28;20186;-68
2023/03/04 14:32:47;;;;;;;7.50;5.68;;;;;;;-2.82;73.25;95994.31;6322583;28;20048;-68
2023/03/04 14:35:59;;;;;;;5.07;3.60;;;;;;;-2.61;72.84;95997.22;6323539;28;20040;-68
2023/03/04 14:39:13;;;;;;;6.35;4.57;;;;;;;-2.62;73.30;95995.53;6323410;28;20651;-68
2023/03/04 14:42:17;;;;;;;6.30;5.00;;;;;;;-2.69;73.76;96006.88;6321776;28;20397;-68
2023/03/04 14:45:20;;;;;;;4.63;4.00;;;;;;;-2.71;73.21;96000.03;6322780;28;20050;-69
2023/03/04 14:48:30;;;;;;;7.38;4.68;;;;;;;-2.75;73.11;95988.13;6322788;28;20032;-68